sensor_id;sensor_type;location;lat;lon;timestamp;P1;durP1;ratioP1;P2;durP2;ratioP2
10309;SDS011;5200;43.236;27.986;2023-12-20T00:00:56;22.33;;;14.80;;
10309;SDS011;5200;43.236;27.986;2023-12-20T00:03:25;19.70;;;15.07;;
10309;SDS011;5200;43.236;27.986;2023-12-20T00:05:54;17.73;;;14.13;;
10309;SDS011;5200;43.236;27.986;2023-12-20T00:08:21;16.03;;;13.17;;
10309;SDS011;5200;43.236;27.986;2023-12-20T00:10:48;19.20;;;15.57;;
10309;SDS011;5200;43.236;27.986;2023-12-20T00:13:15;19.37;;;14.97;;
10309;SDS011;5200;43.236;27.986;2023-12-20T00:15:42;18.77;;;16.30;;
10309;SDS011;5200;43.236;27.986;2023-12-20T00:18:08;19.03;;;15.87;;
10309;SDS011;5200;43.236;27.986;2023-12-20T00:20:35;21.33;;;16.73;;
10309;SDS011;5200;43.236;27.986;2023-12-20T00:23:04;20.92;;;17.75;;
10309;SDS011;5200;43.236;27.986;2023-12-20T00:25:30;22.20;;;17.37;;
10309;SDS011;5200;43.236;27.986;2023-12-20T00:27:57;25.70;;;18.90;;
10309;SDS011;5200;43.236;27.986;2023-12-20T00:30:24;26.85;;;20.23;;
10309;SDS011;5200;43.236;27.986;2023-12-20T00:32:51;31.77;;;22.00;;
10309;SDS011;5200;43.236;27.986;2023-12-20T00:35:18;30.77;;;22.80;;
10309;SDS011;5200;43.236;27.986;2023-12-20T00:37:45;29.93;;;23.47;;
10309;SDS011;5200;43.236;27.986;2023-12-20T00:40:13;27.80;;;22.00;;
10309;SDS011;5200;43.236;27.986;2023-12-20T00:42:40;30.38;;;22.60;;
10309;SDS011;5200;43.236;27.986;2023-12-20T00:45:07;30.27;;;23.33;;
10309;SDS011;5200;43.236;27.986;2023-12-20T00:47:34;23.27;;;19.08;;
10309;SDS011;5200;43.236;27.986;2023-12-20T00:50:01;19.73;;;15.60;;
10309;SDS011;5200;43.236;27.986;2023-12-20T00:52:28;26.23;;;16.87;;
10309;SDS011;5200;43.236;27.986;2023-12-20T00:54:55;21.63;;;18.43;;
10309;SDS011;5200;43.236;27.986;2023-12-20T00:57:23;25.53;;;20.00;;
10309;SDS011;5200;43.236;27.986;2023-12-20T00:59:50;25.77;;;21.67;;
10309;SDS011;5200;43.236;27.986;2023-12-20T01:02:17;27.30;;;21.45;;
10309;SDS011;5200;43.236;27.986;2023-12-20T01:04:44;26.45;;;20.42;;
10309;SDS011;5200;43.236;27.986;2023-12-20T01:07:11;25.33;;;18.70;;
10309;SDS011;5200;43.236;27.986;2023-12-20T01:09:38;24.63;;;19.03;;
10309;SDS011;5200;43.236;27.986;2023-12-20T01:12:05;26.47;;;18.63;;
10309;SDS011;5200;43.236;27.986;2023-12-20T01:14:34;22.33;;;18.47;;
10309;SDS011;5200;43.236;27.986;2023-12-20T01:17:01;23.53;;;17.03;;
10309;SDS011;5200;43.236;27.986;2023-12-20T01:19:28;15.63;;;13.53;;
10309;SDS011;5200;43.236;27.986;2023-12-20T01:21:55;14.73;;;10.70;;
10309;SDS011;5200;43.236;27.986;2023-12-20T01:24:21;15.63;;;12.90;;
10309;SDS011;5200;43.236;27.986;2023-12-20T01:26:48;11.10;;;8.87;;
10309;SDS011;5200;43.236;27.986;2023-12-20T01:29:15;10.20;;;7.40;;
10309;SDS011;5200;43.236;27.986;2023-12-20T01:31:43;11.33;;;8.70;;
10309;SDS011;5200;43.236;27.986;2023-12-20T01:34:10;10.60;;;8.20;;
10309;SDS011;5200;43.236;27.986;2023-12-20T01:36:37;11.87;;;8.30;;
10309;SDS011;5200;43.236;27.986;2023-12-20T01:39:04;12.03;;;10.73;;
10309;SDS011;5200;43.236;27.986;2023-12-20T01:41:31;9.02;;;7.88;;
10309;SDS011;5200;43.236;27.986;2023-12-20T01:43:58;10.23;;;6.60;;
10309;SDS011;5200;43.236;27.986;2023-12-20T01:46:25;9.33;;;7.73;;
10309;SDS011;5200;43.236;27.986;2023-12-20T01:48:54;14.00;;;8.67;;
10309;SDS011;5200;43.236;27.986;2023-12-20T01:51:20;8.63;;;7.27;;
10309;SDS011;5200;43.236;27.986;2023-12-20T01:53:48;7.07;;;6.00;;
10309;SDS011;5200;43.236;27.986;2023-12-20T01:56:15;6.07;;;5.27;;
10309;SDS011;5200;43.236;27.986;2023-12-20T01:58:43;9.27;;;6.27;;
10309;SDS011;5200;43.236;27.986;2023-12-20T02:01:11;11.93;;;8.17;;
10309;SDS011;5200;43.236;27.986;2023-12-20T02:03:38;14.07;;;9.23;;
10309;SDS011;5200;43.236;27.986;2023-12-20T02:06:07;10.43;;;8.10;;
10309;SDS011;5200;43.236;27.986;2023-12-20T02:08:35;11.30;;;8.63;;
10309;SDS011;5200;43.236;27.986;2023-12-20T02:11:02;8.83;;;7.17;;
10309;SDS011;5200;43.236;27.986;2023-12-20T02:13:30;11.93;;;8.40;;
10309;SDS011;5200;43.236;27.986;2023-12-20T02:15:57;8.27;;;6.83;;
10309;SDS011;5200;43.236;27.986;2023-12-20T02:18:24;8.80;;;7.10;;
10309;SDS011;5200;43.236;27.986;2023-12-20T02:20:50;10.03;;;7.40;;
10309;SDS011;5200;43.236;27.986;2023-12-20T02:23:19;13.43;;;8.57;;
10309;SDS011;5200;43.236;27.986;2023-12-20T02:25:46;12.97;;;7.80;;
10309;SDS011;5200;43.236;27.986;2023-12-20T02:28:13;10.52;;;8.10;;
10309;SDS011;5200;43.236;27.986;2023-12-20T02:30:40;12.67;;;9.53;;
10309;SDS011;5200;43.236;27.986;2023-12-20T02:33:07;13.53;;;11.33;;
10309;SDS011;5200;43.236;27.986;2023-12-20T02:35:36;14.68;;;11.18;;
10309;SDS011;5200;43.236;27.986;2023-12-20T02:38:03;13.70;;;11.43;;
10309;SDS011;5200;43.236;27.986;2023-12-20T02:40:31;17.87;;;10.63;;
10309;SDS011;5200;43.236;27.986;2023-12-20T02:42:58;12.47;;;9.27;;
10309;SDS011;5200;43.236;27.986;2023-12-20T02:45:25;11.07;;;9.53;;
10309;SDS011;5200;43.236;27.986;2023-12-20T02:47:53;11.60;;;9.40;;
10309;SDS011;5200;43.236;27.986;2023-12-20T02:50:20;13.90;;;9.05;;
10309;SDS011;5200;43.236;27.986;2023-12-20T02:52:47;9.10;;;7.15;;
10309;SDS011;5200;43.236;27.986;2023-12-20T02:55:13;7.68;;;6.00;;
10309;SDS011;5200;43.236;27.986;2023-12-20T02:57:42;8.00;;;6.00;;
10309;SDS011;5200;43.236;27.986;2023-12-20T03:00:09;7.97;;;6.70;;
10309;SDS011;5200;43.236;27.986;2023-12-20T03:02:36;5.73;;;4.80;;
10309;SDS011;5200;43.236;27.986;2023-12-20T03:05:03;5.27;;;3.53;;
10309;SDS011;5200;43.236;27.986;2023-12-20T03:07:31;3.60;;;3.30;;
10309;SDS011;5200;43.236;27.986;2023-12-20T03:09:58;3.40;;;2.90;;
10309;SDS011;5200;43.236;27.986;2023-12-20T03:12:24;2.07;;;1.97;;
10309;SDS011;5200;43.236;27.986;2023-12-20T03:14:52;4.23;;;2.10;;
10309;SDS011;5200;43.236;27.986;2023-12-20T03:17:19;2.50;;;2.10;;
10309;SDS011;5200;43.236;27.986;2023-12-20T03:19:46;2.30;;;2.10;;
10309;SDS011;5200;43.236;27.986;2023-12-20T03:22:13;2.60;;;2.10;;
10309;SDS011;5200;43.236;27.986;2023-12-20T03:24:40;4.20;;;3.73;;
10309;SDS011;5200;43.236;27.986;2023-12-20T03:27:07;7.63;;;6.93;;
10309;SDS011;5200;43.236;27.986;2023-12-20T03:29:34;5.55;;;4.82;;
10309;SDS011;5200;43.236;27.986;2023-12-20T03:32:02;4.95;;;4.45;;
10309;SDS011;5200;43.236;27.986;2023-12-20T03:34:30;7.53;;;3.03;;
10309;SDS011;5200;43.236;27.986;2023-12-20T03:36:57;11.23;;;8.30;;
10309;SDS011;5200;43.236;27.986;2023-12-20T03:39:23;9.65;;;7.43;;
10309;SDS011;5200;43.236;27.986;2023-12-20T03:41:50;7.20;;;5.60;;
10309;SDS011;5200;43.236;27.986;2023-12-20T03:44:17;7.47;;;5.90;;
10309;SDS011;5200;43.236;27.986;2023-12-20T03:46:44;7.07;;;6.17;;
10309;SDS011;5200;43.236;27.986;2023-12-20T03:49:13;6.57;;;5.83;;
10309;SDS011;5200;43.236;27.986;2023-12-20T03:51:39;6.78;;;6.07;;
10309;SDS011;5200;43.236;27.986;2023-12-20T03:54:07;12.17;;;6.53;;
10309;SDS011;5200;43.236;27.986;2023-12-20T03:56:34;11.07;;;7.23;;
10309;SDS011;5200;43.236;27.986;2023-12-20T03:59:00;8.18;;;6.50;;
10309;SDS011;5200;43.236;27.986;2023-12-20T04:01:27;9.05;;;6.72;;
10309;SDS011;5200;43.236;27.986;2023-12-20T04:03:54;8.23;;;6.35;;
10309;SDS011;5200;43.236;27.986;2023-12-20T04:06:22;7.07;;;6.03;;
10309;SDS011;5200;43.236;27.986;2023-12-20T04:08:49;11.70;;;6.13;;
10309;SDS011;5200;43.236;27.986;2023-12-20T04:11:16;8.88;;;7.32;;
10309;SDS011;5200;43.236;27.986;2023-12-20T04:13:42;11.60;;;9.30;;
10309;SDS011;5200;43.236;27.986;2023-12-20T04:16:09;12.37;;;9.80;;
10309;SDS011;5200;43.236;27.986;2023-12-20T04:18:36;17.87;;;13.67;;
10309;SDS011;5200;43.236;27.986;2023-12-20T04:21:03;14.63;;;10.57;;
10309;SDS011;5200;43.236;27.986;2023-12-20T04:23:31;11.00;;;9.23;;
10309;SDS011;5200;43.236;27.986;2023-12-20T04:25:58;7.40;;;6.33;;
10309;SDS011;5200;43.236;27.986;2023-12-20T04:28:25;7.10;;;5.60;;
10309;SDS011;5200;43.236;27.986;2023-12-20T04:30:55;5.57;;;4.30;;
10309;SDS011;5200;43.236;27.986;2023-12-20T04:33:22;4.90;;;3.97;;
10309;SDS011;5200;43.236;27.986;2023-12-20T04:35:49;4.73;;;3.87;;
10309;SDS011;5200;43.236;27.986;2023-12-20T04:38:16;5.17;;;4.00;;
10309;SDS011;5200;43.236;27.986;2023-12-20T04:40:44;3.63;;;3.33;;
10309;SDS011;5200;43.236;27.986;2023-12-20T04:43:11;14.30;;;9.40;;
10309;SDS011;5200;43.236;27.986;2023-12-20T04:45:38;8.37;;;5.77;;
10309;SDS011;5200;43.236;27.986;2023-12-20T04:48:05;7.77;;;5.60;;
10309;SDS011;5200;43.236;27.986;2023-12-20T04:50:32;5.53;;;4.87;;
10309;SDS011;5200;43.236;27.986;2023-12-20T04:52:59;7.10;;;6.20;;
10309;SDS011;5200;43.236;27.986;2023-12-20T04:55:26;12.33;;;9.07;;
10309;SDS011;5200;43.236;27.986;2023-12-20T04:57:54;9.83;;;8.50;;
10309;SDS011;5200;43.236;27.986;2023-12-20T05:00:21;8.93;;;6.93;;
10309;SDS011;5200;43.236;27.986;2023-12-20T05:02:48;8.50;;;6.57;;
10309;SDS011;5200;43.236;27.986;2023-12-20T05:05:15;9.85;;;6.63;;
10309;SDS011;5200;43.236;27.986;2023-12-20T05:07:43;15.23;;;12.30;;
10309;SDS011;5200;43.236;27.986;2023-12-20T05:10:09;11.20;;;6.60;;
10309;SDS011;5200;43.236;27.986;2023-12-20T05:12:36;8.97;;;6.13;;
10309;SDS011;5200;43.236;27.986;2023-12-20T05:15:05;10.33;;;6.10;;
10309;SDS011;5200;43.236;27.986;2023-12-20T05:17:33;7.73;;;6.33;;
10309;SDS011;5200;43.236;27.986;2023-12-20T05:20:00;6.87;;;5.40;;
10309;SDS011;5200;43.236;27.986;2023-12-20T05:22:26;6.10;;;5.50;;
10309;SDS011;5200;43.236;27.986;2023-12-20T05:24:53;6.10;;;4.83;;
10309;SDS011;5200;43.236;27.986;2023-12-20T05:27:20;7.50;;;6.37;;
10309;SDS011;5200;43.236;27.986;2023-12-20T05:29:47;11.30;;;6.90;;
10309;SDS011;5200;43.236;27.986;2023-12-20T05:32:15;9.93;;;7.63;;
10309;SDS011;5200;43.236;27.986;2023-12-20T05:34:43;12.67;;;7.63;;
10309;SDS011;5200;43.236;27.986;2023-12-20T05:37:09;11.00;;;7.90;;
10309;SDS011;5200;43.236;27.986;2023-12-20T05:39:36;8.97;;;6.77;;
10309;SDS011;5200;43.236;27.986;2023-12-20T05:42:03;8.07;;;6.50;;
10309;SDS011;5200;43.236;27.986;2023-12-20T05:44:30;10.43;;;7.07;;
10309;SDS011;5200;43.236;27.986;2023-12-20T05:46:57;8.03;;;6.93;;
10309;SDS011;5200;43.236;27.986;2023-12-20T05:49:25;8.83;;;6.83;;
10309;SDS011;5200;43.236;27.986;2023-12-20T05:51:52;9.95;;;6.95;;
10309;SDS011;5200;43.236;27.986;2023-12-20T05:54:19;7.90;;;7.10;;
10309;SDS011;5200;43.236;27.986;2023-12-20T05:56:46;11.13;;;8.13;;
10309;SDS011;5200;43.236;27.986;2023-12-20T05:59:13;9.63;;;7.47;;
10309;SDS011;5200;43.236;27.986;2023-12-20T06:01:40;11.10;;;6.97;;
10309;SDS011;5200;43.236;27.986;2023-12-20T06:04:07;12.45;;;7.72;;
10309;SDS011;5200;43.236;27.986;2023-12-20T06:06:35;10.75;;;8.10;;
10309;SDS011;5200;43.236;27.986;2023-12-20T06:09:07;8.05;;;7.25;;
10309;SDS011;5200;43.236;27.986;2023-12-20T06:11:34;13.73;;;6.80;;
10309;SDS011;5200;43.236;27.986;2023-12-20T06:14:01;13.75;;;6.50;;
10309;SDS011;5200;43.236;27.986;2023-12-20T06:16:27;7.90;;;6.75;;
10309;SDS011;5200;43.236;27.986;2023-12-20T06:18:54;14.68;;;6.90;;
10309;SDS011;5200;43.236;27.986;2023-12-20T06:21:21;14.38;;;7.93;;
10309;SDS011;5200;43.236;27.986;2023-12-20T06:23:49;11.63;;;7.82;;
10309;SDS011;5200;43.236;27.986;2023-12-20T06:26:16;11.88;;;8.20;;
10309;SDS011;5200;43.236;27.986;2023-12-20T06:28:43;13.05;;;7.70;;
10309;SDS011;5200;43.236;27.986;2023-12-20T06:31:10;11.05;;;8.10;;
10309;SDS011;5200;43.236;27.986;2023-12-20T06:33:36;12.95;;;8.82;;
10309;SDS011;5200;43.236;27.986;2023-12-20T06:36:06;13.07;;;8.50;;
10309;SDS011;5200;43.236;27.986;2023-12-20T06:38:32;11.02;;;9.02;;
10309;SDS011;5200;43.236;27.986;2023-12-20T06:41:01;14.18;;;8.40;;
10309;SDS011;5200;43.236;27.986;2023-12-20T06:43:28;11.55;;;7.88;;
10309;SDS011;5200;43.236;27.986;2023-12-20T06:45:55;9.05;;;7.93;;
10309;SDS011;5200;43.236;27.986;2023-12-20T06:48:22;11.63;;;8.80;;
10309;SDS011;5200;43.236;27.986;2023-12-20T06:50:49;15.05;;;9.32;;
10309;SDS011;5200;43.236;27.986;2023-12-20T06:53:15;9.30;;;8.05;;
10309;SDS011;5200;43.236;27.986;2023-12-20T06:55:42;7.75;;;6.72;;
10309;SDS011;5200;43.236;27.986;2023-12-20T06:58:11;7.95;;;6.88;;
10309;SDS011;5200;43.236;27.986;2023-12-20T07:00:37;9.30;;;5.93;;
10309;SDS011;5200;43.236;27.986;2023-12-20T07:03:04;9.07;;;6.80;;
10309;SDS011;5200;43.236;27.986;2023-12-20T07:05:31;6.75;;;5.75;;
10309;SDS011;5200;43.236;27.986;2023-12-20T07:07:58;7.22;;;5.93;;
10309;SDS011;5200;43.236;27.986;2023-12-20T07:10:25;10.68;;;8.65;;
10309;SDS011;5200;43.236;27.986;2023-12-20T07:12:52;10.35;;;8.30;;
10309;SDS011;5200;43.236;27.986;2023-12-20T07:15:21;9.23;;;8.10;;
10309;SDS011;5200;43.236;27.986;2023-12-20T07:17:48;8.80;;;6.60;;
10309;SDS011;5200;43.236;27.986;2023-12-20T07:20:15;6.20;;;5.60;;
10309;SDS011;5200;43.236;27.986;2023-12-20T07:22:42;9.50;;;5.72;;
10309;SDS011;5200;43.236;27.986;2023-12-20T07:25:09;9.18;;;6.35;;
10309;SDS011;5200;43.236;27.986;2023-12-20T07:27:36;6.63;;;5.72;;
10309;SDS011;5200;43.236;27.986;2023-12-20T07:30:04;8.82;;;5.97;;
10309;SDS011;5200;43.236;27.986;2023-12-20T07:32:32;6.55;;;5.30;;
10309;SDS011;5200;43.236;27.986;2023-12-20T07:34:59;6.43;;;5.18;;
10309;SDS011;5200;43.236;27.986;2023-12-20T07:37:28;7.53;;;5.43;;
10309;SDS011;5200;43.236;27.986;2023-12-20T07:39:54;5.75;;;5.15;;
10309;SDS011;5200;43.236;27.986;2023-12-20T07:42:21;7.97;;;4.45;;
10309;SDS011;5200;43.236;27.986;2023-12-20T07:44:48;9.48;;;4.70;;
10309;SDS011;5200;43.236;27.986;2023-12-20T07:47:15;12.73;;;4.95;;
10309;SDS011;5200;43.236;27.986;2023-12-20T07:49:45;17.05;;;10.45;;
10309;SDS011;5200;43.236;27.986;2023-12-20T07:52:12;5.63;;;4.75;;
10309;SDS011;5200;43.236;27.986;2023-12-20T07:54:39;7.28;;;4.40;;
10309;SDS011;5200;43.236;27.986;2023-12-20T07:57:07;4.65;;;4.15;;
10309;SDS011;5200;43.236;27.986;2023-12-20T07:59:35;6.65;;;3.78;;
10309;SDS011;5200;43.236;27.986;2023-12-20T08:02:02;8.30;;;4.00;;
10309;SDS011;5200;43.236;27.986;2023-12-20T08:04:29;3.92;;;3.53;;
10309;SDS011;5200;43.236;27.986;2023-12-20T08:06:58;4.90;;;3.83;;
10309;SDS011;5200;43.236;27.986;2023-12-20T08:09:25;9.27;;;3.80;;
10309;SDS011;5200;43.236;27.986;2023-12-20T08:11:52;7.95;;;4.10;;
10309;SDS011;5200;43.236;27.986;2023-12-20T08:14:19;5.13;;;4.13;;
10309;SDS011;5200;43.236;27.986;2023-12-20T08:16:47;9.20;;;4.30;;
10309;SDS011;5200;43.236;27.986;2023-12-20T08:19:19;4.63;;;3.70;;
10309;SDS011;5200;43.236;27.986;2023-12-20T08:21:46;12.05;;;4.00;;
10309;SDS011;5200;43.236;27.986;2023-12-20T08:24:14;7.05;;;4.00;;
10309;SDS011;5200;43.236;27.986;2023-12-20T08:26:41;5.57;;;3.80;;
10309;SDS011;5200;43.236;27.986;2023-12-20T08:29:08;7.43;;;3.65;;
10309;SDS011;5200;43.236;27.986;2023-12-20T08:31:35;7.03;;;3.30;;
10309;SDS011;5200;43.236;27.986;2023-12-20T08:34:02;7.82;;;3.10;;
10309;SDS011;5200;43.236;27.986;2023-12-20T08:36:28;4.80;;;3.53;;
10309;SDS011;5200;43.236;27.986;2023-12-20T08:38:55;9.10;;;3.60;;
10309;SDS011;5200;43.236;27.986;2023-12-20T08:41:23;5.45;;;3.25;;
10309;SDS011;5200;43.236;27.986;2023-12-20T08:43:50;5.40;;;3.00;;
10309;SDS011;5200;43.236;27.986;2023-12-20T08:46:17;18.15;;;3.60;;
10309;SDS011;5200;43.236;27.986;2023-12-20T08:48:44;6.47;;;3.15;;
10309;SDS011;5200;43.236;27.986;2023-12-20T08:51:11;11.85;;;3.10;;
10309;SDS011;5200;43.236;27.986;2023-12-20T08:53:39;5.47;;;3.05;;
10309;SDS011;5200;43.236;27.986;2023-12-20T08:56:06;3.83;;;2.90;;
10309;SDS011;5200;43.236;27.986;2023-12-20T08:58:35;4.47;;;3.38;;
10309;SDS011;5200;43.236;27.986;2023-12-20T09:01:01;5.35;;;2.92;;
10309;SDS011;5200;43.236;27.986;2023-12-20T09:03:28;7.70;;;3.35;;
10309;SDS011;5200;43.236;27.986;2023-12-20T09:05:57;5.00;;;3.33;;
10309;SDS011;5200;43.236;27.986;2023-12-20T09:08:27;9.52;;;3.30;;
10309;SDS011;5200;43.236;27.986;2023-12-20T09:10:54;4.63;;;3.20;;
10309;SDS011;5200;43.236;27.986;2023-12-20T09:13:21;5.47;;;3.10;;
10309;SDS011;5200;43.236;27.986;2023-12-20T09:15:54;3.53;;;3.22;;
10309;SDS011;5200;43.236;27.986;2023-12-20T09:18:21;4.65;;;3.03;;
10309;SDS011;5200;43.236;27.986;2023-12-20T09:20:48;7.63;;;3.13;;
10309;SDS011;5200;43.236;27.986;2023-12-20T09:23:15;5.65;;;3.10;;
10309;SDS011;5200;43.236;27.986;2023-12-20T09:25:42;3.50;;;3.20;;
10309;SDS011;5200;43.236;27.986;2023-12-20T09:28:09;3.33;;;2.70;;
10309;SDS011;5200;43.236;27.986;2023-12-20T09:30:36;4.72;;;3.17;;
10309;SDS011;5200;43.236;27.986;2023-12-20T09:33:06;4.93;;;3.28;;
10309;SDS011;5200;43.236;27.986;2023-12-20T09:35:34;6.05;;;3.40;;
10309;SDS011;5200;43.236;27.986;2023-12-20T09:38:01;4.38;;;3.08;;
10309;SDS011;5200;43.236;27.986;2023-12-20T09:40:28;4.88;;;3.10;;
10309;SDS011;5200;43.236;27.986;2023-12-20T09:42:58;8.98;;;5.07;;
10309;SDS011;5200;43.236;27.986;2023-12-20T09:45:30;5.13;;;4.35;;
10309;SDS011;5200;43.236;27.986;2023-12-20T09:47:57;30.23;;;5.20;;
10309;SDS011;5200;43.236;27.986;2023-12-20T09:50:26;5.35;;;4.28;;
10309;SDS011;5200;43.236;27.986;2023-12-20T09:52:55;5.75;;;3.50;;
10309;SDS011;5200;43.236;27.986;2023-12-20T09:55:25;5.60;;;3.35;;
10309;SDS011;5200;43.236;27.986;2023-12-20T09:57:53;10.55;;;3.10;;
10309;SDS011;5200;43.236;27.986;2023-12-20T10:00:20;4.78;;;3.70;;
10309;SDS011;5200;43.236;27.986;2023-12-20T10:02:49;3.97;;;3.58;;
10309;SDS011;5200;43.236;27.986;2023-12-20T10:05:22;7.22;;;5.03;;
10309;SDS011;5200;43.236;27.986;2023-12-20T10:07:55;9.02;;;7.18;;
10309;SDS011;5200;43.236;27.986;2023-12-20T10:10:22;13.77;;;5.25;;
10309;SDS011;5200;43.236;27.986;2023-12-20T10:13:00;5.55;;;3.75;;
10309;SDS011;5200;43.236;27.986;2023-12-20T10:15:28;4.05;;;3.42;;
10309;SDS011;5200;43.236;27.986;2023-12-20T10:17:56;3.30;;;2.75;;
10309;SDS011;5200;43.236;27.986;2023-12-20T10:20:23;7.05;;;3.95;;
10309;SDS011;5200;43.236;27.986;2023-12-20T10:22:51;10.68;;;5.25;;
10309;SDS011;5200;43.236;27.986;2023-12-20T10:25:19;8.85;;;5.35;;
10309;SDS011;5200;43.236;27.986;2023-12-20T10:27:46;5.28;;;3.95;;
10309;SDS011;5200;43.236;27.986;2023-12-20T10:30:13;13.02;;;7.53;;
10309;SDS011;5200;43.236;27.986;2023-12-20T10:32:40;9.68;;;5.32;;
10309;SDS011;5200;43.236;27.986;2023-12-20T10:35:08;13.82;;;6.32;;
10309;SDS011;5200;43.236;27.986;2023-12-20T10:37:35;6.70;;;5.78;;
10309;SDS011;5200;43.236;27.986;2023-12-20T10:40:04;8.00;;;5.40;;
10309;SDS011;5200;43.236;27.986;2023-12-20T10:42:32;6.40;;;4.70;;
10309;SDS011;5200;43.236;27.986;2023-12-20T10:45:01;7.45;;;4.68;;
10309;SDS011;5200;43.236;27.986;2023-12-20T10:47:28;5.35;;;4.22;;
10309;SDS011;5200;43.236;27.986;2023-12-20T10:49:58;4.47;;;4.07;;
10309;SDS011;5200;43.236;27.986;2023-12-20T10:52:27;7.70;;;5.32;;
10309;SDS011;5200;43.236;27.986;2023-12-20T10:54:55;75.15;;;45.10;;
10309;SDS011;5200;43.236;27.986;2023-12-20T10:57:24;38.50;;;23.63;;
10309;SDS011;5200;43.236;27.986;2023-12-20T10:59:53;22.02;;;13.65;;
10309;SDS011;5200;43.236;27.986;2023-12-20T11:02:21;6.50;;;4.93;;
10309;SDS011;5200;43.236;27.986;2023-12-20T11:04:50;8.25;;;6.80;;
10309;SDS011;5200;43.236;27.986;2023-12-20T11:07:22;6.95;;;4.72;;
10309;SDS011;5200;43.236;27.986;2023-12-20T11:09:56;5.53;;;4.22;;
10309;SDS011;5200;43.236;27.986;2023-12-20T11:12:32;10.65;;;4.65;;
10309;SDS011;5200;43.236;27.986;2023-12-20T11:15:04;8.85;;;4.53;;
10309;SDS011;5200;43.236;27.986;2023-12-20T11:17:33;6.25;;;3.90;;
10309;SDS011;5200;43.236;27.986;2023-12-20T11:20:07;6.05;;;4.55;;
10309;SDS011;5200;43.236;27.986;2023-12-20T11:22:37;7.10;;;6.40;;
10309;SDS011;5200;43.236;27.986;2023-12-20T11:25:07;6.65;;;5.95;;
10309;SDS011;5200;43.236;27.986;2023-12-20T11:27:37;14.93;;;10.77;;
10309;SDS011;5200;43.236;27.986;2023-12-20T11:30:08;14.82;;;12.50;;
10309;SDS011;5200;43.236;27.986;2023-12-20T11:32:35;9.10;;;8.05;;
10309;SDS011;5200;43.236;27.986;2023-12-20T11:35:16;9.95;;;7.57;;
10309;SDS011;5200;43.236;27.986;2023-12-20T11:37:45;9.07;;;6.93;;
10309;SDS011;5200;43.236;27.986;2023-12-20T11:40:13;12.27;;;7.80;;
10309;SDS011;5200;43.236;27.986;2023-12-20T11:42:43;8.95;;;7.40;;
10309;SDS011;5200;43.236;27.986;2023-12-20T11:45:13;10.70;;;7.38;;
10309;SDS011;5200;43.236;27.986;2023-12-20T11:47:42;8.80;;;7.35;;
10309;SDS011;5200;43.236;27.986;2023-12-20T11:50:11;11.95;;;7.72;;
10309;SDS011;5200;43.236;27.986;2023-12-20T11:52:38;9.88;;;7.72;;
10309;SDS011;5200;43.236;27.986;2023-12-20T11:55:05;7.90;;;6.82;;
10309;SDS011;5200;43.236;27.986;2023-12-20T11:57:33;10.35;;;7.85;;
10309;SDS011;5200;43.236;27.986;2023-12-20T12:00:01;9.50;;;7.80;;
10309;SDS011;5200;43.236;27.986;2023-12-20T12:02:29;7.78;;;5.57;;
10309;SDS011;5200;43.236;27.986;2023-12-20T12:04:57;7.85;;;6.68;;
10309;SDS011;5200;43.236;27.986;2023-12-20T12:07:24;9.13;;;6.78;;
10309;SDS011;5200;43.236;27.986;2023-12-20T12:09:51;9.32;;;7.30;;
10309;SDS011;5200;43.236;27.986;2023-12-20T12:12:18;9.02;;;7.72;;
10309;SDS011;5200;43.236;27.986;2023-12-20T12:14:45;11.35;;;9.20;;
10309;SDS011;5200;43.236;27.986;2023-12-20T12:17:14;10.50;;;8.68;;
10309;SDS011;5200;43.236;27.986;2023-12-20T12:19:42;11.32;;;9.15;;
10309;SDS011;5200;43.236;27.986;2023-12-20T12:22:10;13.23;;;10.23;;
10309;SDS011;5200;43.236;27.986;2023-12-20T12:24:39;17.20;;;9.50;;
10309;SDS011;5200;43.236;27.986;2023-12-20T12:27:06;13.77;;;10.10;;
10309;SDS011;5200;43.236;27.986;2023-12-20T12:29:34;11.32;;;9.75;;
10309;SDS011;5200;43.236;27.986;2023-12-20T12:32:01;9.88;;;8.85;;
10309;SDS011;5200;43.236;27.986;2023-12-20T12:34:33;12.88;;;9.70;;
10309;SDS011;5200;43.236;27.986;2023-12-20T12:37:00;12.50;;;9.70;;
10309;SDS011;5200;43.236;27.986;2023-12-20T12:39:27;11.88;;;9.18;;
10309;SDS011;5200;43.236;27.986;2023-12-20T12:41:55;14.60;;;9.30;;
10309;SDS011;5200;43.236;27.986;2023-12-20T12:44:23;14.73;;;10.93;;
10309;SDS011;5200;43.236;27.986;2023-12-20T12:46:50;14.05;;;10.75;;
10309;SDS011;5200;43.236;27.986;2023-12-20T12:49:19;13.77;;;11.00;;
10309;SDS011;5200;43.236;27.986;2023-12-20T12:51:47;16.33;;;10.95;;
10309;SDS011;5200;43.236;27.986;2023-12-20T12:54:15;16.95;;;11.25;;
10309;SDS011;5200;43.236;27.986;2023-12-20T12:56:43;13.93;;;11.57;;
10309;SDS011;5200;43.236;27.986;2023-12-20T12:59:12;18.02;;;11.32;;
10309;SDS011;5200;43.236;27.986;2023-12-20T13:01:39;14.95;;;11.85;;
10309;SDS011;5200;43.236;27.986;2023-12-20T13:04:05;12.52;;;10.82;;
10309;SDS011;5200;43.236;27.986;2023-12-20T13:06:35;13.90;;;11.88;;
10309;SDS011;5200;43.236;27.986;2023-12-20T13:09:04;17.00;;;12.55;;
10309;SDS011;5200;43.236;27.986;2023-12-20T13:11:31;20.73;;;12.95;;
10309;SDS011;5200;43.236;27.986;2023-12-20T13:13:58;16.45;;;13.00;;
10309;SDS011;5200;43.236;27.986;2023-12-20T13:16:30;17.50;;;12.40;;
10309;SDS011;5200;43.236;27.986;2023-12-20T13:18:57;17.02;;;12.85;;
10309;SDS011;5200;43.236;27.986;2023-12-20T13:21:25;17.48;;;12.18;;
10309;SDS011;5200;43.236;27.986;2023-12-20T13:23:51;20.17;;;13.18;;
10309;SDS011;5200;43.236;27.986;2023-12-20T13:26:20;22.40;;;13.52;;
10309;SDS011;5200;43.236;27.986;2023-12-20T13:28:47;16.35;;;12.05;;
10309;SDS011;5200;43.236;27.986;2023-12-20T13:31:14;20.25;;;13.93;;
10309;SDS011;5200;43.236;27.986;2023-12-20T13:33:41;18.98;;;12.25;;
10309;SDS011;5200;43.236;27.986;2023-12-20T13:36:08;15.43;;;12.25;;
10309;SDS011;5200;43.236;27.986;2023-12-20T13:38:35;18.25;;;12.98;;
10309;SDS011;5200;43.236;27.986;2023-12-20T13:41:02;17.02;;;13.35;;
10309;SDS011;5200;43.236;27.986;2023-12-20T13:43:31;20.00;;;13.20;;
10309;SDS011;5200;43.236;27.986;2023-12-20T13:45:58;18.38;;;12.73;;
10309;SDS011;5200;43.236;27.986;2023-12-20T13:48:25;17.80;;;13.38;;
10309;SDS011;5200;43.236;27.986;2023-12-20T13:50:52;19.38;;;13.45;;
10309;SDS011;5200;43.236;27.986;2023-12-20T13:53:19;17.17;;;13.43;;
10309;SDS011;5200;43.236;27.986;2023-12-20T13:55:46;21.95;;;14.45;;
10309;SDS011;5200;43.236;27.986;2023-12-20T13:58:13;18.88;;;14.50;;
10309;SDS011;5200;43.236;27.986;2023-12-20T14:00:41;25.90;;;16.48;;
10309;SDS011;5200;43.236;27.986;2023-12-20T14:03:08;23.63;;;15.80;;
10309;SDS011;5200;43.236;27.986;2023-12-20T14:05:35;16.70;;;14.07;;
10309;SDS011;5200;43.236;27.986;2023-12-20T14:08:02;21.00;;;14.68;;
10309;SDS011;5200;43.236;27.986;2023-12-20T14:10:29;19.40;;;14.32;;
10309;SDS011;5200;43.236;27.986;2023-12-20T14:12:56;17.98;;;14.27;;
10309;SDS011;5200;43.236;27.986;2023-12-20T14:15:23;16.40;;;13.85;;
10309;SDS011;5200;43.236;27.986;2023-12-20T14:17:52;20.00;;;13.98;;
10309;SDS011;5200;43.236;27.986;2023-12-20T14:20:19;16.77;;;14.43;;
10309;SDS011;5200;43.236;27.986;2023-12-20T14:22:46;18.27;;;14.55;;
10309;SDS011;5200;43.236;27.986;2023-12-20T14:25:13;17.98;;;14.63;;
10309;SDS011;5200;43.236;27.986;2023-12-20T14:27:41;23.48;;;14.25;;
10309;SDS011;5200;43.236;27.986;2023-12-20T14:30:09;18.63;;;15.07;;
10309;SDS011;5200;43.236;27.986;2023-12-20T14:32:39;18.40;;;14.43;;
10309;SDS011;5200;43.236;27.986;2023-12-20T14:35:07;16.05;;;14.35;;
10309;SDS011;5200;43.236;27.986;2023-12-20T14:37:34;20.02;;;16.08;;
10309;SDS011;5200;43.236;27.986;2023-12-20T14:40:04;22.25;;;16.23;;